createdAt,value
2023-09-13T00:04:27.144Z,69.10
2023-09-13T00:09:29.615Z,69.20
2023-09-13T00:14:32.200Z,69.20
2023-09-13T00:19:34.191Z,69.20
2023-09-13T00:24:35.906Z,69.20
2023-09-13T00:29:37.709Z,69.10
2023-09-13T00:34:39.337Z,69.20
2023-09-13T00:39:41.022Z,69.20
2023-09-13T00:44:43.539Z,69.20
2023-09-13T00:49:45.793Z,69.20
2023-09-13T00:54:47.564Z,69.20
2023-09-13T00:59:49.522Z,69.30
2023-09-13T01:04:51.421Z,69.20
2023-09-13T01:09:53.147Z,69.30
2023-09-13T01:14:54.819Z,69.20
2023-09-13T01:20:02.076Z,69.20
2023-09-13T01:25:14.435Z,69.20
2023-09-13T01:30:17.210Z,69.20
2023-09-13T01:35:19.026Z,69.30
2023-09-13T01:40:22.102Z,69.20
2023-09-13T01:45:23.978Z,69.20
2023-09-13T01:50:25.812Z,69.20
2023-09-13T01:55:27.521Z,69.20
2023-09-13T02:00:30.209Z,69.20
2023-09-13T02:05:31.889Z,69.10
2023-09-13T02:10:34.240Z,69.20
2023-09-13T02:15:39.824Z,69.10
2023-09-13T02:20:42.277Z,69.10
2023-09-13T02:25:46.956Z,69.10
2023-09-13T02:30:48.997Z,69.10
2023-09-13T02:35:50.733Z,69.10
2023-09-13T02:40:52.460Z,69.00
2023-09-13T02:45:54.169Z,69.00
2023-09-13T02:50:55.786Z,69.10
2023-09-13T02:56:05.465Z,69.00
2023-09-13T03:01:12.714Z,69.00
2023-09-13T03:06:15.050Z,69.10
2023-09-13T03:11:17.482Z,69.00
2023-09-13T03:16:20.105Z,69.00
2023-09-13T03:21:22.156Z,69.00
2023-09-13T03:26:27.749Z,69.00
2023-09-13T03:31:32.609Z,69.10
2023-09-13T03:36:35.278Z,69.10
2023-09-13T03:41:36.861Z,69.10
2023-09-13T03:46:38.727Z,69.10
2023-09-13T03:51:40.651Z,69.20
2023-09-13T03:56:43.508Z,69.10
2023-09-13T04:01:45.782Z,69.20
2023-09-13T04:06:47.841Z,69.10
2023-09-13T04:11:49.602Z,69.20
2023-09-13T04:16:51.309Z,69.20
2023-09-13T04:21:53.129Z,69.20
2023-09-13T04:26:54.770Z,69.20
2023-09-13T04:31:56.389Z,69.20
2023-09-13T04:36:58.054Z,69.30
2023-09-13T04:42:01.227Z,69.20
2023-09-13T04:52:16.237Z,69.30
2023-09-13T04:57:17.877Z,69.20
2023-09-13T05:02:19.520Z,69.20
2023-09-13T05:07:21.330Z,69.20
2023-09-13T05:12:23.752Z,69.20
2023-09-13T05:17:25.388Z,69.20
2023-09-13T05:22:27.122Z,69.10
2023-09-13T05:27:28.875Z,69.30
2023-09-13T05:32:30.611Z,69.20
2023-09-13T05:37:32.589Z,70.20
2023-09-13T05:42:35.491Z,69.60
2023-09-13T05:47:37.116Z,69.60
2023-09-13T05:52:40.318Z,69.40
2023-09-13T05:57:41.918Z,69.40
2023-09-13T06:02:46.946Z,69.10
2023-09-13T06:07:48.590Z,68.90
2023-09-13T06:12:50.236Z,68.70
2023-09-13T06:17:52.986Z,68.60
2023-09-13T06:22:55.440Z,68.50
2023-09-13T06:27:57.205Z,68.20
2023-09-13T06:33:11.169Z,68.10
2023-09-13T06:38:15.647Z,68.80
2023-09-13T06:43:31.326Z,67.80
2023-09-13T06:48:35.088Z,67.50
2023-09-13T06:53:37.312Z,67.20
2023-09-13T06:58:42.765Z,66.80
2023-09-13T07:03:50.033Z,66.80
2023-09-13T07:08:52.463Z,66.50
2023-09-13T07:13:54.205Z,66.30
2023-09-13T07:18:56.772Z,66.20
2023-09-13T07:23:58.759Z,65.90
2023-09-13T07:29:00.587Z,65.70
2023-09-13T07:34:04.274Z,65.60
2023-09-13T07:39:07.921Z,65.60
2023-09-13T07:44:09.629Z,65.60
2023-09-13T07:49:11.319Z,65.50
2023-09-13T07:54:13.026Z,65.30
2023-09-13T07:59:16.448Z,65.20
2023-09-13T08:04:19.984Z,65.10
2023-09-13T08:09:21.755Z,65.10
2023-09-13T08:14:23.391Z,65.00
2023-09-13T08:19:25.205Z,64.80
2023-09-13T08:24:26.817Z,64.80
2023-09-13T08:29:28.484Z,64.80
2023-09-13T08:34:30.196Z,64.70
2023-09-13T08:39:33.008Z,64.80
2023-09-13T08:44:35.137Z,64.60
2023-09-13T08:49:37.313Z,64.50
2023-09-13T08:54:55.590Z,64.40
2023-09-13T08:59:59.816Z,64.50
2023-09-13T09:05:03.252Z,64.60
2023-09-13T09:10:09.685Z,64.50
2023-09-13T09:15:11.944Z,64.50
2023-09-13T09:20:16.892Z,64.60
2023-09-13T09:25:18.713Z,64.40
2023-09-13T09:30:29.721Z,64.30
2023-09-13T09:35:32.023Z,64.10
2023-09-13T09:40:40.204Z,64.70
2023-09-13T09:45:42.129Z,63.40
2023-09-13T09:50:46.277Z,63.50
2023-09-13T09:55:48.497Z,63.50
2023-09-13T10:00:51.304Z,63.30
2023-09-13T10:05:54.227Z,63.20
2023-09-13T10:10:57.373Z,63.20
2023-09-13T10:15:59.667Z,62.90
2023-09-13T10:21:03.402Z,63.10
2023-09-13T10:26:07.506Z,63.00
2023-09-13T10:31:14.159Z,63.00
2023-09-13T10:36:28.798Z,63.00
2023-09-13T10:41:32.369Z,62.90
2023-09-13T10:46:34.169Z,62.80
2023-09-13T10:51:36.106Z,62.60
2023-09-13T10:56:38.062Z,62.70
2023-09-13T11:01:42.791Z,62.80
2023-09-13T11:06:47.006Z,62.70
2023-09-13T11:11:49.669Z,62.70
2023-09-13T11:16:51.526Z,62.60
2023-09-13T11:21:55.889Z,63.60
2023-09-13T11:27:09.479Z,62.50
2023-09-13T11:32:21.271Z,62.60
2023-09-13T11:37:26.370Z,62.80
2023-09-13T11:42:34.933Z,63.10
2023-09-13T11:47:38.078Z,63.00
2023-09-13T11:52:58.899Z,62.60
2023-09-13T11:58:07.615Z,62.20
2023-09-13T12:03:20.494Z,62.30
2023-09-13T12:08:33.692Z,62.30
2023-09-13T12:13:55.670Z,62.10
2023-09-13T12:19:05.048Z,62.00
2023-09-13T12:24:09.837Z,62.00
2023-09-13T12:29:11.565Z,61.80
2023-09-13T12:34:13.657Z,62.00
2023-09-13T12:39:16.906Z,62.10
2023-09-13T12:44:20.368Z,62.50
2023-09-13T12:49:22.364Z,62.60
2023-09-13T12:54:25.172Z,62.70
2023-09-13T12:59:26.827Z,62.00
2023-09-13T13:04:33.089Z,62.30
2023-09-13T13:09:34.938Z,62.50
2023-09-13T13:14:37.301Z,62.30
2023-09-13T13:19:55.533Z,62.20
2023-09-13T13:24:58.291Z,62.20
2023-09-13T13:30:00.005Z,62.10
2023-09-13T13:35:05.118Z,62.10
2023-09-13T13:40:07.089Z,61.90
2023-09-13T13:45:09.083Z,61.90
2023-09-13T13:50:10.730Z,61.80
2023-09-13T13:55:12.815Z,61.70
2023-09-13T14:00:15.122Z,61.80
2023-09-13T14:05:16.868Z,61.60
2023-09-13T14:10:18.535Z,61.50
2023-09-13T14:15:21.393Z,61.30
2023-09-13T14:20:23.061Z,61.00
2023-09-13T14:25:25.215Z,61.00
2023-09-13T14:30:26.871Z,60.90
2023-09-13T14:35:28.732Z,60.70
2023-09-13T14:40:30.337Z,60.80
2023-09-13T14:45:32.073Z,60.80
2023-09-13T14:50:33.740Z,60.60
2023-09-13T14:55:35.352Z,60.40
2023-09-13T15:00:37.013Z,60.20
2023-09-13T15:05:38.758Z,60.30
2023-09-13T15:10:40.709Z,60.00
2023-09-13T15:15:46.449Z,60.20
2023-09-13T15:20:48.252Z,60.00
2023-09-13T15:25:49.891Z,60.00
2023-09-13T15:30:52.530Z,60.10
2023-09-13T15:35:54.614Z,60.20
2023-09-13T15:40:56.575Z,60.40
2023-09-13T15:45:58.230Z,60.70
2023-09-13T15:51:00.001Z,61.20
2023-09-13T15:56:01.631Z,61.10
2023-09-13T16:01:03.381Z,61.20
2023-09-13T16:06:05.185Z,64.80
2023-09-13T16:11:06.832Z,63.40
2023-09-13T16:16:08.511Z,62.90
2023-09-13T16:21:10.143Z,62.40
2023-09-13T16:26:11.846Z,62.10
2023-09-13T16:31:14.483Z,62.30
2023-09-13T16:36:16.201Z,62.50
2023-09-13T16:41:17.835Z,62.30
2023-09-13T16:46:19.809Z,62.20
2023-09-13T16:51:21.604Z,62.50
2023-09-13T16:56:23.417Z,63.50
2023-09-13T17:01:25.123Z,62.30
2023-09-13T17:06:26.859Z,62.50
2023-09-13T17:11:30.934Z,62.80
2023-09-13T17:16:32.665Z,62.70
2023-09-13T17:21:34.334Z,63.00
2023-09-13T17:26:35.977Z,62.60
2023-09-13T17:31:37.621Z,62.60
2023-09-13T17:36:42.919Z,62.60
2023-09-13T17:41:44.773Z,62.80
2023-09-13T17:46:46.667Z,62.80
2023-09-13T17:51:48.417Z,62.60
2023-09-13T17:56:50.111Z,62.20
2023-09-13T18:01:51.789Z,62.60
2023-09-13T18:06:53.581Z,62.20
2023-09-13T18:11:56.079Z,62.00
2023-09-13T18:16:57.708Z,62.10
2023-09-13T18:21:59.765Z,62.10
2023-09-13T18:27:01.828Z,62.20
2023-09-13T18:32:03.818Z,62.10
2023-09-13T18:37:05.434Z,62.30
2023-09-13T18:42:07.054Z,62.00
2023-09-13T18:47:08.899Z,62.00
2023-09-13T18:52:10.562Z,62.00
2023-09-13T18:57:12.605Z,62.00
2023-09-13T19:02:14.569Z,62.00
2023-09-13T19:07:16.272Z,61.90
2023-09-13T19:12:17.964Z,61.70
2023-09-13T19:17:19.685Z,61.40
2023-09-13T19:22:21.296Z,61.30
2023-09-13T19:27:22.980Z,61.30
2023-09-13T19:32:24.839Z,61.30
2023-09-13T19:37:26.515Z,61.10
2023-09-13T19:42:31.043Z,61.10
2023-09-13T19:47:32.737Z,61.10
2023-09-13T19:52:34.512Z,61.10
2023-09-13T19:57:36.168Z,61.00
2023-09-13T20:02:38.025Z,60.90
2023-09-13T20:07:39.758Z,61.10
2023-09-13T20:12:42.519Z,60.90
2023-09-13T20:17:44.738Z,61.20
2023-09-13T20:22:46.385Z,61.70
2023-09-13T20:27:48.294Z,61.90
2023-09-13T20:32:50.119Z,61.90
2023-09-13T20:37:51.795Z,63.00
2023-09-13T20:42:54.657Z,62.00
2023-09-13T20:47:56.561Z,62.00
2023-09-13T20:52:58.735Z,61.90
2023-09-13T20:58:00.414Z,61.80
2023-09-13T21:03:03.312Z,61.40
2023-09-13T21:08:05.312Z,61.30
2023-09-13T21:13:07.065Z,60.90
2023-09-13T21:18:08.962Z,60.70
2023-09-13T21:23:10.564Z,60.40
2023-09-13T21:28:12.193Z,60.40
2023-09-13T21:33:14.493Z,60.20
2023-09-13T21:38:16.101Z,60.10
2023-09-13T21:43:17.759Z,60.00
2023-09-13T21:48:20.580Z,59.90
2023-09-13T21:53:22.195Z,59.90
2023-09-13T21:58:24.120Z,59.90
2023-09-13T22:03:28.848Z,59.70
2023-09-13T22:08:31.115Z,59.60
2023-09-13T22:13:33.059Z,59.60
2023-09-13T22:18:35.148Z,59.40
2023-09-13T22:23:36.856Z,59.40
2023-09-13T22:28:38.514Z,59.40
2023-09-13T22:33:40.463Z,59.40
2023-09-13T22:38:54.254Z,59.30
2023-09-13T22:43:59.943Z,59.30
2023-09-13T22:49:01.831Z,59.30
2023-09-13T22:54:04.428Z,59.30
2023-09-13T22:59:06.087Z,59.40
2023-09-13T23:04:08.267Z,59.30
2023-09-13T23:09:17.216Z,59.30
2023-09-13T23:14:19.062Z,59.10
2023-09-13T23:19:20.730Z,58.90
2023-09-13T23:24:23.148Z,58.90
2023-09-13T23:29:25.319Z,59.10
2023-09-13T23:34:26.944Z,58.70
2023-09-13T23:39:29.647Z,58.80
2023-09-13T23:44:31.286Z,58.60
2023-09-13T23:49:34.642Z,58.50
2023-09-13T23:54:36.290Z,58.70
2023-09-13T23:59:37.930Z,58.30
